Time;durP1;ratioP1;P1;durP2;ratioP2;P2;SDS_P1;SDS_P2;PMS_P1;PMS_P2;Temp;Humidity;BMP_temperature;BMP_pressure;BME280_temperature;BME280_humidity;BME280_pressure;Samples;Min_cycle;Max_cycle;Signal;HPM_P1;HPM_P2
2021/05/19 00:01:37;;;;;;;4.45;2.53;;;8.20;99.90;;;;;;5089092;28;20032;-78
2021/05/19 00:04:03;;;;;;;4.88;3.05;;;8.20;99.90;;;;;;5088738;28;20032;-77
2021/05/19 00:06:28;;;;;;;5.50;3.08;;;8.10;99.90;;;;;;5088950;28;20024;-78
2021/05/19 00:08:54;;;;;;;4.65;2.92;;;8.10;99.90;;;;;;5088943;28;20455;-78
2021/05/19 00:11:20;;;;;;;6.10;3.05;;;8.10;99.90;;;;;;5089107;28;20432;-77
2021/05/19 00:13:46;;;;;;;5.03;2.78;;;8.00;99.90;;;;;;5088987;28;20037;-78
2021/05/19 00:16:11;;;;;;;4.57;2.67;;;8.00;99.90;;;;;;5089319;28;20050;-78
2021/05/19 00:18:37;;;;;;;9.70;3.03;;;8.00;99.90;;;;;;5088060;28;20397;-78
2021/05/19 00:21:04;;;;;;;6.13;3.08;;;7.90;99.90;;;;;;5088599;28;20031;-78
2021/05/19 00:23:30;;;;;;;9.85;3.50;;;7.90;99.90;;;;;;5088434;28;20575;-78
2021/05/19 00:25:56;;;;;;;8.13;3.03;;;7.90;99.90;;;;;;5088911;28;20471;-78
2021/05/19 00:28:22;;;;;;;6.28;3.50;;;7.90;99.90;;;;;;5088672;28;20028;-78
2021/05/19 00:30:51;;;;;;;7.53;3.30;;;7.90;99.90;;;;;;5088272;28;20027;-78
2021/05/19 00:33:17;;;;;;;8.65;3.17;;;8.00;99.90;;;;;;5088618;28;20028;-78
2021/05/19 00:35:42;;;;;;;7.75;3.50;;;7.90;99.90;;;;;;5088462;28;20024;-78
2021/05/19 00:38:08;;;;;;;7.15;3.65;;;7.90;99.90;;;;;;5086707;28;20421;-78
2021/05/19 00:40:34;;;;;;;5.03;2.90;;;8.00;99.90;;;;;;5088524;28;20452;-78
2021/05/19 00:42:59;;;;;;;12.68;3.45;;;8.00;99.90;;;;;;5088517;28;20036;-78
2021/05/19 00:45:25;;;;;;;6.97;3.78;;;8.00;99.90;;;;;;5087932;28;20028;-78
2021/05/19 00:47:51;;;;;;;5.82;3.33;;;8.10;99.90;;;;;;5088109;28;20036;-78
2021/05/19 00:50:22;;;;;;;6.97;2.70;;;8.10;99.90;;;;;;5087826;28;20023;-78
2021/05/19 00:52:48;;;;;;;;;;;8.00;99.90;;;;;;5088164;28;20514;-78
2021/05/19 00:55:14;;;;;;;4.85;2.75;;;8.00;99.90;;;;;;5088064;28;19939;-78
2021/05/19 00:57:41;;;;;;;8.32;2.78;;;8.00;99.90;;;;;;5087291;28;20498;-78
2021/05/19 01:00:10;;;;;;;7.32;2.95;;;8.10;99.90;;;;;;5087663;28;20263;-78
2021/05/19 01:02:37;;;;;;;10.52;3.08;;;8.20;99.90;;;;;;5087835;28;20028;-78
2021/05/19 01:05:10;;;;;;;5.78;3.55;;;8.30;99.90;;;;;;5088055;28;20051;-78
2021/05/19 01:07:39;;;;;;;5.13;3.10;;;8.30;99.90;;;;;;5081728;28;20025;-78
2021/05/19 01:10:05;;;;;;;8.13;3.08;;;8.40;99.90;;;;;;5087860;28;20031;-78
2021/05/19 01:12:31;;;;;;;6.03;2.58;;;8.40;99.90;;;;;;5087477;28;20115;-78
2021/05/19 01:14:57;;;;;;;4.78;2.38;;;8.50;99.90;;;;;;5088141;28;20024;-78
2021/05/19 01:17:22;;;;;;;4.03;2.75;;;8.50;99.90;;;;;;5088024;28;20562;-78
2021/05/19 01:19:50;;;;;;;5.97;3.55;;;8.50;99.90;;;;;;5087794;28;20042;-78
2021/05/19 01:22:19;;;;;;;4.85;3.15;;;8.60;99.90;;;;;;5087813;28;20024;-78
2021/05/19 01:24:45;;;;;;;6.30;3.25;;;8.60;99.90;;;;;;5087301;28;20096;-78
2021/05/19 01:27:11;;;;;;;5.43;3.30;;;8.60;99.90;;;;;;5087506;28;20425;-78
2021/05/19 01:29:36;;;;;;;4.63;2.83;;;8.70;99.90;;;;;;5087427;28;20073;-78
2021/05/19 01:32:03;;;;;;;4.90;3.42;;;8.70;99.90;;;;;;5087716;28;20553;-78
2021/05/19 01:34:28;;;;;;;6.88;3.40;;;8.80;99.90;;;;;;5087484;28;20024;-78
2021/05/19 01:36:54;;;;;;;10.77;3.63;;;8.90;99.90;;;;;;5090822;28;20031;-78
2021/05/19 01:39:19;;;;;;;6.70;3.60;;;9.00;99.90;;;;;;5092719;28;20062;-78
2021/05/19 01:41:46;;;;;;;7.63;3.55;;;9.20;99.90;;;;;;5091785;28;20035;-78
2021/05/19 01:44:17;;;;;;;7.38;3.17;;;9.40;99.90;;;;;;5091477;28;20094;-78
2021/05/19 01:46:43;;;;;;;8.93;2.60;;;9.40;99.90;;;;;;5091350;28;20505;-78
2021/05/19 01:49:10;;;;;;;5.18;3.40;;;9.40;99.90;;;;;;5091283;28;20122;-78
2021/05/19 01:51:37;;;;;;;6.43;3.65;;;9.40;99.90;;;;;;5091054;28;20043;-78
2021/05/19 01:54:04;;;;;;;8.63;3.45;;;9.40;99.90;;;;;;5090730;28;20097;-78
2021/05/19 01:56:30;;;;;;;6.32;3.40;;;9.40;99.90;;;;;;5091362;28;20044;-78
2021/05/19 01:58:57;;;;;;;7.28;3.13;;;9.40;99.90;;;;;;5091693;28;20399;-78
2021/05/19 02:01:23;;;;;;;5.57;3.13;;;9.40;99.90;;;;;;5091812;28;20059;-78
2021/05/19 02:03:48;;;;;;;6.25;3.10;;;9.50;99.90;;;;;;5090590;28;20070;-78
2021/05/19 02:06:14;;;;;;;7.28;3.70;;;9.40;99.90;;;;;;5091307;28;20028;-78
2021/05/19 02:08:40;;;;;;;6.82;3.30;;;9.40;99.90;;;;;;5091101;28;20027;-78
2021/05/19 02:11:05;;;;;;;5.93;2.85;;;9.50;99.90;;;;;;5091262;28;20588;-78
2021/05/19 02:13:31;;;;;;;6.68;3.15;;;9.60;99.90;;;;;;5091073;28;20028;-78
2021/05/19 02:15:56;;;;;;;4.85;3.00;;;9.70;99.90;;;;;;5090697;28;20031;-78
2021/05/19 02:18:22;;;;;;;5.53;3.08;;;9.80;99.90;;;;;;5091218;28;20062;-78
2021/05/19 02:20:47;;;;;;;9.35;3.70;;;9.80;99.90;;;;;;5090940;28;20043;-78
2021/05/19 02:23:13;;;;;;;5.28;2.97;;;9.80;99.90;;;;;;5091544;28;20035;-78
2021/05/19 02:25:38;;;;;;;7.25;2.97;;;9.80;99.90;;;;;;5090343;28;20016;-78
2021/05/19 02:28:04;;;;;;;6.97;3.45;;;9.80;99.90;;;;;;5091234;28;20483;-78
2021/05/19 02:30:31;;;;;;;7.93;3.67;;;9.90;99.90;;;;;;5090746;28;20588;-78
2021/05/19 02:32:56;;;;;;;6.10;3.35;;;10.00;99.90;;;;;;5091335;28;20178;-78
2021/05/19 02:35:22;;;;;;;6.78;3.15;;;10.00;99.90;;;;;;5089507;28;20537;-78
2021/05/19 02:37:47;;;;;;;4.90;2.90;;;10.10;99.90;;;;;;5089317;28;20020;-78
2021/05/19 02:40:15;;;;;;;4.45;2.85;;;10.20;99.90;;;;;;5090905;28;20028;-78
2021/05/19 02:42:44;;;;;;;7.05;2.97;;;10.20;99.90;;;;;;5091243;28;20082;-78
2021/05/19 02:45:10;;;;;;;4.35;2.40;;;10.20;99.90;;;;;;5090526;28;20028;-78
2021/05/19 02:47:36;;;;;;;4.35;2.70;;;10.20;99.90;;;;;;5090292;28;20024;-78
2021/05/19 02:50:02;;;;;;;6.65;2.35;;;10.20;99.90;;;;;;5087966;28;20024;-78
2021/05/19 02:52:28;;;;;;;4.80;2.70;;;10.20;99.90;;;;;;5090273;28;20040;-77
2021/05/19 02:54:53;;;;;;;5.70;3.08;;;10.20;99.90;;;;;;5089547;28;20028;-78
2021/05/19 02:57:19;;;;;;;5.40;2.88;;;10.20;99.90;;;;;;5089533;28;20513;-78
2021/05/19 02:59:45;;;;;;;5.47;3.17;;;10.20;99.90;;;;;;5090025;28;20024;-78
2021/05/19 03:02:10;;;;;;;5.47;3.15;;;10.10;99.90;;;;;;5089882;28;20073;-78
2021/05/19 03:04:37;;;;;;;5.22;2.60;;;10.10;99.90;;;;;;5090191;28;20509;-78
2021/05/19 03:07:03;;;;;;;5.63;2.47;;;10.00;99.90;;;;;;5090305;28;20017;-78
2021/05/19 03:09:29;;;;;;;10.25;2.90;;;10.00;99.90;;;;;;5089287;28;20028;-78
2021/05/19 03:11:54;;;;;;;3.22;2.55;;;10.00;99.90;;;;;;5090456;28;20046;-78
2021/05/19 03:14:21;;;;;;;6.38;2.78;;;10.00;99.90;;;;;;5090432;28;20058;-78
2021/05/19 03:16:46;;;;;;;4.90;2.83;;;10.00;99.90;;;;;;5087354;28;20081;-78
2021/05/19 03:19:12;;;;;;;4.53;2.85;;;10.00;99.90;;;;;;5089326;28;20044;-78
2021/05/19 03:21:37;;;;;;;7.00;3.08;;;10.00;99.90;;;;;;5090498;28;20133;-78
2021/05/19 03:24:03;;;;;;;8.55;2.65;;;10.10;99.90;;;;;;5089229;28;20036;-78
2021/05/19 03:26:29;;;;;;;5.97;3.00;;;10.20;99.90;;;;;;5089042;28;20028;-78
2021/05/19 03:28:55;;;;;;;4.78;2.67;;;10.10;99.90;;;;;;5090055;28;20447;-78
2021/05/19 03:31:21;;;;;;;7.03;3.28;;;10.00;99.90;;;;;;5090047;28;20028;-78
2021/05/19 03:33:47;;;;;;;3.72;2.67;;;10.00;99.90;;;;;;5089162;28;20028;-78
2021/05/19 03:36:12;;;;;;;8.02;2.80;;;10.20;99.90;;;;;;5089990;28;20036;-78
2021/05/19 03:38:38;;;;;;;5.45;3.00;;;10.30;99.90;;;;;;5088838;28;20531;-78
2021/05/19 03:41:05;;;;;;;3.90;2.95;;;10.30;99.90;;;;;;5090152;28;20130;-78
2021/05/19 03:43:32;;;;;;;4.10;2.72;;;10.40;99.90;;;;;;5089493;28;20032;-78
2021/05/19 03:45:57;;;;;;;4.25;2.90;;;10.50;99.90;;;;;;5089282;28;20115;-78
2021/05/19 03:48:23;;;;;;;5.75;2.90;;;10.50;99.90;;;;;;5089009;28;20620;-78
2021/05/19 03:50:49;;;;;;;4.43;2.70;;;10.60;99.90;;;;;;5089078;28;20017;-78
2021/05/19 03:53:15;;;;;;;4.85;2.80;;;10.70;99.90;;;;;;5089953;28;20507;-78
2021/05/19 03:55:43;;;;;;;3.83;2.72;;;10.70;99.90;;;;;;5088937;28;20020;-78
2021/05/19 03:58:09;;;;;;;6.43;2.90;;;10.70;99.90;;;;;;5088307;28;20047;-78
2021/05/19 04:00:35;;;;;;;6.05;3.28;;;10.80;99.90;;;;;;5081855;28;20388;-78
2021/05/19 04:03:03;;;;;;;3.92;2.67;;;10.80;99.90;;;;;;5089314;28;20038;-78
2021/05/19 04:05:32;;;;;;;4.97;3.03;;;10.80;99.90;;;;;;5087978;28;20030;-78
2021/05/19 04:07:57;;;;;;;4.10;2.60;;;10.80;99.90;;;;;;5086843;28;20638;-78
2021/05/19 04:10:23;;;;;;;6.95;2.90;;;10.90;99.90;;;;;;5088876;28;20028;-78
2021/05/19 04:12:51;;;;;;;8.77;3.72;;;11.00;99.90;;;;;;5088546;28;20289;-78
2021/05/19 04:15:18;;;;;;;6.30;3.05;;;11.00;99.90;;;;;;5089145;28;20047;-78
2021/05/19 04:17:43;;;;;;;5.53;3.58;;;11.00;99.90;;;;;;5087239;28;20035;-78
2021/05/19 04:20:10;;;;;;;5.35;2.83;;;11.00;99.90;;;;;;5089688;28;20425;-75
2021/05/19 04:22:35;;;;;;;5.40;3.03;;;11.00;99.90;;;;;;5088504;28;20055;-76
2021/05/19 04:25:01;;;;;;;4.00;2.72;;;11.00;99.90;;;;;;5088435;28;20487;-75
2021/05/19 04:27:26;;;;;;;9.80;3.00;;;10.90;99.90;;;;;;5087855;28;20103;-75
2021/05/19 04:29:52;;;;;;;8.23;3.83;;;11.00;99.90;;;;;;5088565;28;20123;-74
2021/05/19 04:32:18;;;;;;;11.80;3.50;;;11.10;99.90;;;;;;5088662;28;20026;-73
2021/05/19 04:34:44;;;;;;;9.23;3.97;;;11.10;99.90;;;;;;5087784;28;20020;-72
2021/05/19 04:37:09;;;;;;;9.20;4.07;;;11.10;99.90;;;;;;5087669;28;20028;-73
2021/05/19 04:39:35;;;;;;;8.93;3.38;;;11.10;99.90;;;;;;5088973;28;20424;-74
2021/05/19 04:42:01;;;;;;;5.32;3.15;;;11.10;99.90;;;;;;5086985;28;20119;-71
2021/05/19 04:44:27;;;;;;;5.43;3.35;;;11.10;99.90;;;;;;5088396;28;20104;-71
2021/05/19 04:46:53;;;;;;;4.53;3.25;;;11.00;99.90;;;;;;5088511;28;20020;-71
2021/05/19 04:49:19;;;;;;;6.55;3.42;;;11.00;99.90;;;;;;5087806;28;20028;-70
2021/05/19 04:51:44;;;;;;;7.53;3.35;;;11.00;99.90;;;;;;5087174;28;20051;-71
2021/05/19 04:54:10;;;;;;;6.78;3.80;;;11.00;99.90;;;;;;5087742;28;20023;-72
2021/05/19 04:56:36;;;;;;;7.35;3.70;;;11.00;99.90;;;;;;5087556;28;20402;-71
2021/05/19 04:59:03;;;;;;;6.55;3.25;;;11.00;99.90;;;;;;5087986;28;20028;-72
2021/05/19 05:01:28;;;;;;;8.40;3.90;;;11.00;99.90;;;;;;5086949;28;20509;-73
2021/05/19 05:03:54;;;;;;;6.03;3.70;;;11.00;99.90;;;;;;5086878;28;20115;-73
2021/05/19 05:06:49;;;;;;;8.15;4.07;;;11.00;99.90;;;;;;5087219;28;20035;-72
2021/05/19 05:09:14;;;;;;;5.03;3.25;;;11.00;99.90;;;;;;5083587;28;20115;-73
2021/05/19 05:11:40;;;;;;;6.43;3.70;;;10.90;99.90;;;;;;5084521;28;20111;-73
2021/05/19 05:14:05;;;;;;;6.45;3.47;;;11.00;99.90;;;;;;5085289;28;20035;-73
2021/05/19 05:16:31;;;;;;;5.82;3.17;;;11.00;99.90;;;;;;5083221;28;20040;-74
2021/05/19 05:18:56;;;;;;;4.10;2.83;;;10.90;99.90;;;;;;5087963;28;20175;-77
2021/05/19 05:21:22;;;;;;;5.47;3.53;;;11.00;99.90;;;;;;5087773;28;20455;-74
2021/05/19 05:23:48;;;;;;;10.63;3.10;;;11.00;99.90;;;;;;5083219;28;20032;-73
2021/05/19 05:26:14;;;;;;;5.43;3.20;;;11.10;99.90;;;;;;5088104;28;20024;-73
2021/05/19 05:28:40;;;;;;;6.45;3.55;;;11.10;99.90;;;;;;5086891;28;20420;-73
2021/05/19 05:31:05;;;;;;;5.95;3.05;;;11.10;99.90;;;;;;5077872;28;20044;-73
2021/05/19 05:33:31;;;;;;;7.07;3.53;;;11.10;99.90;;;;;;5078364;28;20547;-72
2021/05/19 05:35:56;;;;;;;7.82;3.05;;;11.10;99.90;;;;;;5077601;28;20024;-72
2021/05/19 05:38:22;;;;;;;5.07;2.90;;;11.20;99.90;;;;;;5078984;28;20032;-72
2021/05/19 05:40:47;;;;;;;4.40;2.83;;;11.30;99.90;;;;;;5077918;28;20478;-72
2021/05/19 05:43:13;;;;;;;4.82;2.70;;;11.30;99.90;;;;;;5078629;28;20028;-72
2021/05/19 05:45:38;;;;;;;6.80;3.13;;;11.40;99.90;;;;;;5078421;28;20033;-73
2021/05/19 05:48:04;;;;;;;5.55;3.15;;;11.40;99.90;;;;;;5076297;28;20537;-73
2021/05/19 05:50:29;;;;;;;7.25;2.83;;;11.50;99.90;;;;;;5077670;28;20035;-72
2021/05/19 05:52:55;;;;;;;6.07;3.17;;;11.50;99.90;;;;;;5076107;28;20048;-78
2021/05/19 05:55:21;;;;;;;5.38;2.90;;;11.60;99.90;;;;;;5077894;28;20028;-71
2021/05/19 05:57:47;;;;;;;4.30;2.70;;;11.60;99.90;;;;;;5076942;28;20040;-70
2021/05/19 06:00:14;;;;;;;4.43;3.00;;;11.60;99.90;;;;;;5078999;28;20418;-72
2021/05/19 06:02:40;;;;;;;5.03;2.90;;;11.60;99.90;;;;;;5078136;28;20035;-71
2021/05/19 06:05:06;;;;;;;5.00;2.88;;;11.70;99.90;;;;;;5077192;28;20032;-72
2021/05/19 06:07:31;;;;;;;7.13;3.75;;;11.80;99.90;;;;;;5078013;28;20054;-71
2021/05/19 06:09:57;;;;;;;5.22;2.90;;;11.80;99.90;;;;;;5077904;28;20111;-70
2021/05/19 06:12:23;;;;;;;9.13;3.58;;;11.90;99.90;;;;;;5076359;28;20020;-71
2021/05/19 06:14:48;;;;;;;3.97;2.75;;;12.00;99.90;;;;;;5076375;28;20039;-70
2021/05/19 06:17:15;;;;;;;6.60;2.92;;;12.00;99.90;;;;;;5078104;28;20024;-71
2021/05/19 06:19:41;;;;;;;4.97;2.47;;;12.00;99.90;;;;;;5076545;28;20032;-71
2021/05/19 06:22:08;;;;;;;7.50;2.85;;;12.00;99.90;;;;;;5079181;28;20058;-71
2021/05/19 06:24:34;;;;;;;6.10;2.50;;;12.10;99.90;;;;;;5080840;28;20169;-71
2021/05/19 06:27:01;;;;;;;4.55;2.88;;;12.10;99.90;;;;;;5081253;28;20032;-71
2021/05/19 06:29:26;;;;;;;3.55;2.60;;;12.20;99.90;;;;;;5081361;28;20107;-71
2021/05/19 06:31:52;;;;;;;3.85;2.50;;;12.20;99.90;;;;;;5080524;28;20582;-71
2021/05/19 06:34:18;;;;;;;4.85;2.40;;;12.20;99.90;;;;;;5082051;28;20032;-71
2021/05/19 06:36:46;;;;;;;5.25;2.92;;;12.20;99.90;;;;;;5079491;28;20576;-71
2021/05/19 06:39:17;;;;;;;3.45;2.00;;;12.20;99.90;;;;;;5079517;28;20024;-76
2021/05/19 06:41:45;;;;;;;4.88;2.40;;;12.20;99.90;;;;;;5080048;28;20028;-77
2021/05/19 06:44:12;;;;;;;3.55;2.22;;;12.30;99.90;;;;;;5080848;28;20503;-75
2021/05/19 06:46:38;;;;;;;4.63;2.05;;;12.30;99.90;;;;;;5080481;28;20027;-73
2021/05/19 06:49:04;;;;;;;4.40;2.83;;;12.30;99.90;;;;;;5079183;28;20024;-73
2021/05/19 06:51:30;;;;;;;4.38;2.08;;;12.40;99.90;;;;;;5079912;28;20036;-73
2021/05/19 06:53:56;;;;;;;3.33;2.40;;;12.50;99.90;;;;;;5087158;28;20051;-74
2021/05/19 06:56:22;;;;;;;3.17;1.90;;;12.50;99.90;;;;;;5091211;28;20044;-73
2021/05/19 06:58:47;;;;;;;3.55;2.00;;;12.50;99.90;;;;;;5089373;28;20020;-73
2021/05/19 07:01:12;;;;;;;3.05;2.45;;;12.50;99.90;;;;;;5090651;28;20024;-72
2021/05/19 07:03:38;;;;;;;4.70;2.28;;;12.60;99.90;;;;;;5086822;28;20370;-71
2021/05/19 07:06:04;;;;;;;6.07;2.45;;;12.70;99.90;;;;;;5080517;28;20038;-72
2021/05/19 07:08:29;;;;;;;2.72;2.10;;;12.80;99.90;;;;;;5079414;28;20024;-73
2021/05/19 07:10:56;;;;;;;5.93;1.92;;;12.80;99.90;;;;;;5080313;28;20024;-73
2021/05/19 07:13:21;;;;;;;3.40;1.88;;;12.90;99.90;;;;;;5085197;28;20020;-72
2021/05/19 07:15:52;;;;;;;2.28;1.67;;;13.00;99.90;;;;;;5083609;28;20085;-72
2021/05/19 07:18:18;;;;;;;;;;;13.00;99.00;;;;;;5082495;28;20024;-71
2021/05/19 07:20:44;;;;;;;4.25;1.98;;;13.00;99.90;;;;;;5085972;28;20354;-73
2021/05/19 07:23:09;;;;;;;2.45;1.70;;;13.10;99.90;;;;;;5084647;28;20032;-71
2021/05/19 07:25:35;;;;;;;3.92;1.70;;;13.10;99.20;;;;;;5086087;28;20016;-71
2021/05/19 07:28:01;;;;;;;2.63;1.60;;;13.10;99.90;;;;;;5081330;28;20028;-71
2021/05/19 07:30:27;;;;;;;1.63;1.30;;;13.20;98.90;;;;;;5082833;28;20032;-72
2021/05/19 07:32:53;;;;;;;3.25;1.77;;;13.20;98.30;;;;;;5084093;28;20020;-73
2021/05/19 07:35:19;;;;;;;1.92;1.63;;;13.30;98.40;;;;;;5088552;28;20035;-71
2021/05/19 07:37:46;;;;;;;2.42;1.58;;;13.30;97.70;;;;;;5082994;28;20062;-70
2021/05/19 07:40:12;;;;;;;2.15;1.40;;;13.50;97.50;;;;;;5080604;28;20058;-72
2021/05/19 07:42:38;;;;;;;2.15;1.55;;;13.60;96.90;;;;;;5086416;28;20032;-72
2021/05/19 07:45:04;;;;;;;2.70;1.48;;;13.60;95.30;;;;;;5084569;28;20122;-71
2021/05/19 07:47:31;;;;;;;2.28;1.60;;;13.70;93.50;;;;;;5082495;28;20275;-70
2021/05/19 07:49:56;;;;;;;2.00;1.73;;;13.70;94.80;;;;;;5083006;28;20696;-71
2021/05/19 07:52:22;;;;;;;3.13;1.80;;;13.80;93.50;;;;;;5081723;28;20117;-72
2021/05/19 07:54:48;;;;;;;2.08;1.63;;;13.80;94.00;;;;;;5082832;28;20169;-71
2021/05/19 07:57:21;;;;;;;1.63;1.23;;;13.90;93.60;;;;;;5087759;28;20111;-72
2021/05/19 07:59:54;;;;;;;3.33;2.10;;;14.00;92.20;;;;;;5084912;28;20039;-70
2021/05/19 08:02:20;;;;;;;2.90;2.13;;;14.10;93.00;;;;;;5083005;28;20734;-71
2021/05/19 08:04:45;;;;;;;2.45;1.73;;;14.30;93.40;;;;;;5084440;28;20028;-72
2021/05/19 08:07:10;;;;;;;1.85;1.35;;;14.40;92.30;;;;;;5083487;28;20024;-72
2021/05/19 08:09:36;;;;;;;3.75;2.13;;;14.30;91.80;;;;;;5084896;28;20040;-72
2021/05/19 08:12:01;;;;;;;1.65;1.33;;;14.20;92.10;;;;;;5082372;28;20020;-72
2021/05/19 08:14:29;;;;;;;1.83;1.40;;;14.20;92.50;;;;;;5083125;28;20042;-71
2021/05/19 08:16:58;;;;;;;6.10;1.85;;;14.10;91.80;;;;;;5085105;28;20020;-71
2021/05/19 08:19:24;;;;;;;1.50;1.20;;;14.20;91.60;;;;;;5084983;28;20081;-71
2021/05/19 08:21:49;;;;;;;2.33;1.48;;;14.20;90.00;;;;;;5081867;28;20115;-69
2021/05/19 08:24:15;;;;;;;2.10;1.40;;;14.20;87.70;;;;;;5080952;28;20054;-71
2021/05/19 08:26:41;;;;;;;2.15;1.40;;;14.30;88.60;;;;;;5084628;28;20032;-72
2021/05/19 08:29:10;;;;;;;2.08;1.40;;;14.50;89.30;;;;;;5082766;28;20039;-73
2021/05/19 08:31:35;;;;;;;2.00;1.45;;;14.50;88.50;;;;;;5077399;28;20048;-73
2021/05/19 08:34:01;;;;;;;1.65;1.02;;;14.40;88.30;;;;;;5081998;28;20586;-73
2021/05/19 08:36:26;;;;;;;3.75;1.60;;;14.40;87.40;;;;;;5080980;28;20028;-75
2021/05/19 08:38:55;;;;;;;1.95;1.50;;;14.40;85.60;;;;;;5082618;28;20024;-75
2021/05/19 08:41:21;;;;;;;2.05;1.40;;;14.50;85.70;;;;;;5085726;28;20020;-73
2021/05/19 08:43:47;;;;;;;2.55;1.70;;;14.70;86.60;;;;;;5081321;28;20036;-76
2021/05/19 08:46:13;;;;;;;1.73;1.40;;;14.90;85.50;;;;;;5080366;28;20020;-76
2021/05/19 08:48:41;;;;;;;1.83;1.27;;;15.00;85.70;;;;;;5082143;28;20070;-71
2021/05/19 08:51:23;;;;;;;1.35;1.15;;;15.00;80.70;;;;;;5084618;28;20050;-71
2021/05/19 08:53:48;;;;;;;1.10;1.00;;;14.80;81.80;;;;;;5074719;28;20032;-72
2021/05/19 08:56:16;;;;;;;3.15;1.80;;;15.00;85.40;;;;;;5082662;28;20066;-71
2021/05/19 08:58:42;;;;;;;5.07;1.73;;;15.20;83.40;;;;;;5081507;28;20081;-72
2021/05/19 09:01:07;;;;;;;1.25;1.00;;;15.30;81.20;;;;;;5081883;28;20036;-72
2021/05/19 09:03:35;;;;;;;1.13;1.02;;;15.30;80.80;;;;;;5083902;28;20055;-72
2021/05/19 09:06:06;;;;;;;1.10;1.00;;;15.20;79.50;;;;;;5077620;28;20028;-72
2021/05/19 09:08:36;;;;;;;2.20;1.23;;;15.00;78.80;;;;;;5084415;28;20076;-76
2021/05/19 09:11:04;;;;;;;0.95;0.88;;;15.00;78.10;;;;;;5081373;28;20046;-76
2021/05/19 09:13:31;;;;;;;1.08;1.00;;;15.10;77.90;;;;;;5081369;28;20024;-75
2021/05/19 09:15:56;;;;;;;1.52;1.00;;;15.10;75.20;;;;;;5083929;28;20107;-74
2021/05/19 09:18:22;;;;;;;0.90;0.80;;;15.10;73.00;;;;;;5080998;28;20127;-72
2021/05/19 09:20:50;;;;;;;1.35;1.00;;;15.00;71.90;;;;;;5081303;28;20032;-72
2021/05/19 09:23:18;;;;;;;1.25;0.95;;;15.10;73.60;;;;;;5084521;28;20126;-70
2021/05/19 09:25:44;;;;;;;1.48;1.00;;;15.10;74.20;;;;;;5083321;28;20032;-71
2021/05/19 09:28:43;;;;;;;1.60;1.10;;;15.20;72.20;;;;;;5080597;28;20076;-70
2021/05/19 09:31:22;;;;;;;1.80;0.93;;;15.30;73.90;;;;;;5079464;28;20024;-71
2021/05/19 09:33:49;;;;;;;1.77;0.90;;;15.50;73.40;;;;;;5080619;28;20394;-71
2021/05/19 09:36:24;;;;;;;2.10;1.08;;;15.60;73.60;;;;;;5084072;28;20031;-72
2021/05/19 09:38:55;;;;;;;1.05;0.80;;;15.60;72.80;;;;;;5081563;28;20024;-71
2021/05/19 09:41:29;;;;;;;2.30;1.17;;;15.70;70.80;;;;;;5081688;28;20103;-72
2021/05/19 09:43:57;;;;;;;3.28;0.93;;;15.80;66.20;;;;;;5079904;28;20043;-71
2021/05/19 09:49:22;;;;;;;1.00;0.90;;;15.80;71.10;;;;;;5071356;28;20436;-71
2021/05/19 09:51:53;;;;;;;1.23;1.00;;;16.00;67.60;;;;;;5077814;28;20559;-71
2021/05/19 09:54:36;;;;;;;1.15;1.05;;;16.10;68.20;;;;;;5079643;28;20044;-72
2021/05/19 09:57:06;;;;;;;2.97;0.80;;;16.10;68.90;;;;;;5081120;28;20534;-72
2021/05/19 09:59:32;;;;;;;0.88;0.70;;;16.10;62.60;;;;;;5087593;28;20040;-71
2021/05/19 10:02:00;;;;;;;0.70;0.70;;;16.20;67.10;;;;;;5086298;28;20397;-70
2021/05/19 10:07:12;;;;;;;1.05;0.75;;;16.30;66.40;;;;;;5077149;28;20109;-71
2021/05/19 10:09:38;;;;;;;0.77;0.73;;;16.60;67.80;;;;;;5087422;28;20047;-71
2021/05/19 10:12:04;;;;;;;1.33;0.85;;;16.50;66.20;;;;;;5086029;28;20741;-71
2021/05/19 10:14:30;;;;;;;1.30;1.15;;;16.50;68.30;;;;;;5086836;28;20016;-71
2021/05/19 10:17:06;;;;;;;1.00;0.90;;;16.60;69.00;;;;;;5085564;28;20497;-71
2021/05/19 10:19:38;;;;;;;0.80;0.80;;;16.80;68.90;;;;;;5085444;28;20029;-71
2021/05/19 10:22:07;;;;;;;0.90;0.90;;;17.00;67.70;;;;;;5086695;28;20023;-71
2021/05/19 10:24:57;;;;;;;1.90;1.15;;;17.00;65.80;;;;;;5083247;28;20043;-71
2021/05/19 10:27:23;;;;;;;1.10;1.00;;;16.90;66.40;;;;;;5084467;28;20616;-71
2021/05/19 10:29:51;;;;;;;0.88;0.88;;;16.90;67.70;;;;;;5083104;28;20601;-71
2021/05/19 10:32:26;;;;;;;0.80;0.80;;;16.60;68.10;;;;;;5083913;28;20385;-71
2021/05/19 10:35:03;;;;;;;1.38;1.00;;;16.60;69.10;;;;;;5084607;28;20043;-71
2021/05/19 10:37:29;;;;;;;1.75;1.02;;;16.90;68.20;;;;;;5083802;28;20031;-71
2021/05/19 10:40:10;;;;;;;3.00;1.00;;;17.10;70.00;;;;;;5084908;28;20028;-76
2021/05/19 10:42:44;;;;;;;0.88;0.80;;;17.50;68.60;;;;;;5083264;28;20020;-77
2021/05/19 10:45:15;;;;;;;3.22;0.90;;;17.80;65.90;;;;;;5084748;28;20047;-76
2021/05/19 10:47:45;;;;;;;0.90;0.80;;;17.90;62.80;;;;;;5084680;28;20086;-78
2021/05/19 10:50:32;;;;;;;5.18;1.13;;;18.00;61.10;;;;;;5083858;28;20383;-78
2021/05/19 10:58:30;;;;;;;1.73;1.17;;;18.30;61.00;;;;;;5084370;28;20055;-78
2021/05/19 11:00:56;;;;;;;0.98;0.88;;;18.30;62.20;;;;;;5084517;28;20020;-78
2021/05/19 11:03:22;;;;;;;1.50;1.00;;;18.20;60.60;;;;;;5086507;28;20032;-78
2021/05/19 11:05:55;;;;;;;1.10;0.90;;;18.00;60.20;;;;;;5082675;28;20032;-78
2021/05/19 11:08:28;;;;;;;2.10;1.27;;;17.90;62.10;;;;;;5084939;28;20031;-78
2021/05/19 11:11:12;;;;;;;2.03;0.82;;;18.10;63.20;;;;;;5082066;28;20482;-77
2021/05/19 11:14:32;;;;;;;0.80;0.80;;;18.40;59.70;;;;;;5086299;28;20024;-78
2021/05/19 11:19:37;;;;;;;1.67;0.63;;;18.00;60.10;;;;;;5087126;28;20027;-77
2021/05/19 11:22:09;;;;;;;0.73;0.73;;;18.40;57.90;;;;;;5083687;28;20036;-77
2021/05/19 11:24:56;;;;;;;1.10;0.88;;;18.90;58.80;;;;;;5074918;28;20016;-78
2021/05/19 11:27:25;;;;;;;0.98;0.68;;;19.40;55.90;;;;;;5085740;28;20101;-77
2021/05/19 11:29:51;;;;;;;0.73;0.73;;;20.10;54.60;;;;;;5083736;28;20046;-78
2021/05/19 11:32:28;;;;;;;0.73;0.73;;;20.70;51.60;;;;;;5082061;28;20491;-77
2021/05/19 11:35:09;;;;;;;0.70;0.70;;;20.80;52.30;;;;;;5083811;28;20388;-77
2021/05/19 11:37:35;;;;;;;0.90;0.82;;;20.30;50.90;;;;;;5081041;28;20089;-77
2021/05/19 11:40:00;;;;;;;0.52;0.52;;;20.00;52.60;;;;;;5087236;28;20028;-78
2021/05/19 11:42:29;;;;;;;1.10;0.90;;;19.80;53.70;;;;;;5081817;28;20602;-77
2021/05/19 11:45:05;;;;;;;0.85;0.85;;;19.60;54.70;;;;;;5075854;28;20670;-77
2021/05/19 11:47:30;;;;;;;1.23;0.93;;;19.20;54.90;;;;;;5083062;28;20032;-77
2021/05/19 11:50:16;;;;;;;4.05;1.30;;;18.90;55.60;;;;;;5085411;28;20569;-78
2021/05/19 11:52:54;;;;;;;1.20;0.80;;;19.40;58.80;;;;;;5083288;28;20274;-77
2021/05/19 11:55:49;;;;;;;0.70;0.70;;;19.80;53.80;;;;;;5079963;28;20518;-78
2021/05/19 11:58:29;;;;;;;1.20;0.65;;;19.70;53.20;;;;;;5080760;28;20799;-77
2021/05/19 12:01:03;;;;;;;1.17;0.80;;;19.30;53.10;;;;;;5084281;28;20027;-78
2021/05/19 12:03:31;;;;;;;0.55;0.55;;;19.20;52.20;;;;;;5080790;28;20024;-77
2021/05/19 12:06:10;;;;;;;0.85;0.70;;;19.40;51.90;;;;;;5083714;28;20020;-78
2021/05/19 12:08:38;;;;;;;0.75;0.60;;;19.90;52.00;;;;;;5084473;28;20020;-78
2021/05/19 12:11:21;;;;;;;1.90;0.77;;;21.30;51.10;;;;;;5082614;28;20117;-78
2021/05/19 12:13:56;;;;;;;0.68;0.60;;;21.60;45.90;;;;;;5084525;28;20024;-78
2021/05/19 12:16:43;;;;;;;0.73;0.73;;;21.80;47.80;;;;;;5083204;28;20035;-78
2021/05/19 12:19:13;;;;;;;1.55;1.00;;;22.40;45.30;;;;;;5084283;28;20106;-78
2021/05/19 12:21:43;;;;;;;0.60;0.60;;;23.90;44.50;;;;;;5084569;28;20119;-78
2021/05/19 12:24:10;;;;;;;0.73;0.70;;;25.40;41.20;;;;;;5080996;28;20055;-78
2021/05/19 12:26:38;;;;;;;0.60;0.60;;;26.40;41.80;;;;;;5083041;28;20282;-78
2021/05/19 12:29:51;;;;;;;2.92;0.80;;;27.60;39.80;;;;;;5084584;28;20026;-78
2021/05/19 12:32:27;;;;;;;1.10;0.77;;;27.50;37.60;;;;;;5080848;28;20016;-78
2021/05/19 12:35:09;;;;;;;1.05;0.73;;;28.40;35.20;;;;;;5082919;28;20028;-78
2021/05/19 12:37:45;;;;;;;1.45;0.98;;;28.40;38.80;;;;;;5077982;28;20110;-78
2021/05/19 12:40:16;;;;;;;1.60;0.82;;;28.50;36.00;;;;;;5081595;28;20039;-74
2021/05/19 12:42:51;;;;;;;1.95;0.55;;;29.10;35.70;;;;;;5080214;28;20039;-74
2021/05/19 12:45:30;;;;;;;2.33;0.77;;;29.50;31.10;;;;;;5084670;28;20036;-74
2021/05/19 12:48:10;;;;;;;1.02;0.88;;;29.30;32.60;;;;;;5080761;28;20398;-73
2021/05/19 12:50:37;;;;;;;1.98;0.90;;;29.40;35.60;;;;;;5078800;28;20028;-74
2021/05/19 12:53:03;;;;;;;0.85;0.80;;;30.00;33.40;;;;;;5080444;28;20044;-71
2021/05/19 12:55:28;;;;;;;0.80;0.80;;;29.30;32.90;;;;;;5082795;28;20431;-71
2021/05/19 12:58:06;;;;;;;1.00;0.93;;;28.00;34.60;;;;;;5082005;28;20039;-71
2021/05/19 13:00:32;;;;;;;0.40;0.40;;;26.60;37.00;;;;;;5078868;28;20047;-73
2021/05/19 13:02:57;;;;;;;1.08;0.77;;;26.30;40.60;;;;;;5080320;28;20024;-74
2021/05/19 13:05:26;;;;;;;0.88;0.88;;;27.10;39.60;;;;;;5080365;28;20028;-74
2021/05/19 13:07:52;;;;;;;0.88;0.80;;;27.70;35.90;;;;;;5079260;28;20050;-72